createdAt,value
2022-08-19T00:00:56.240Z,23.38
2022-08-19T00:05:58.953Z,23.44
2022-08-19T00:11:01.695Z,23.47
2022-08-19T00:16:06.909Z,23.48
2022-08-19T00:21:10.566Z,23.46
2022-08-19T00:26:13.448Z,23.40
2022-08-19T00:31:16.603Z,23.28
2022-08-19T00:36:19.627Z,23.15
2022-08-19T00:41:25.094Z,23.05
2022-08-19T00:46:29.445Z,23.01
2022-08-19T00:51:33.904Z,22.95
2022-08-19T00:56:37.857Z,22.88
2022-08-19T01:01:43.522Z,22.78
2022-08-19T01:06:46.292Z,22.67
2022-08-19T01:11:49.601Z,22.57
2022-08-19T01:16:55.562Z,22.46
2022-08-19T01:22:14.203Z,22.37
2022-08-19T01:27:18.737Z,22.30
2022-08-19T01:32:33.984Z,22.24
2022-08-19T01:37:48.102Z,22.20
2022-08-19T01:42:53.861Z,22.17
2022-08-19T01:48:01.482Z,22.13
2022-08-19T01:53:09.432Z,22.04
2022-08-19T01:58:25.826Z,21.97
2022-08-19T02:03:30.076Z,21.92
2022-08-19T02:08:35.792Z,21.91
2022-08-19T02:13:38.521Z,21.88
2022-08-19T02:18:41.234Z,21.85
2022-08-19T02:23:44.289Z,21.79
2022-08-19T02:28:47.014Z,21.75
2022-08-19T02:33:50.035Z,21.70
2022-08-19T02:38:54.718Z,21.68
2022-08-19T02:44:14.274Z,21.66
2022-08-19T02:49:22.172Z,21.65
2022-08-19T02:54:24.977Z,21.65
2022-08-19T02:59:31.475Z,21.64
2022-08-19T03:04:34.269Z,21.63
2022-08-19T03:09:40.674Z,21.62
2022-08-19T03:14:43.801Z,21.61
2022-08-19T03:19:46.503Z,21.56
2022-08-19T03:24:49.262Z,21.46
2022-08-19T03:29:52.576Z,21.37
2022-08-19T03:34:55.379Z,21.30
2022-08-19T03:39:58.098Z,21.26
2022-08-19T03:45:00.984Z,21.23
2022-08-19T03:50:04.056Z,21.25
2022-08-19T03:55:07.787Z,21.27
2022-08-19T04:00:13.536Z,21.29
2022-08-19T04:05:16.825Z,21.34
2022-08-19T04:10:19.660Z,21.43
2022-08-19T04:15:22.357Z,21.55
2022-08-19T04:20:25.077Z,21.70
2022-08-19T04:25:27.802Z,21.88
2022-08-19T04:30:30.488Z,22.08
2022-08-19T04:35:46.210Z,22.23
2022-08-19T04:41:09.112Z,22.39
2022-08-19T04:46:18.151Z,22.57
2022-08-19T04:51:37.913Z,22.76
2022-08-19T04:56:41.809Z,23.01
2022-08-19T05:01:44.656Z,23.26
2022-08-19T05:06:49.586Z,23.53
2022-08-19T05:11:54.670Z,23.85
2022-08-19T05:17:25.622Z,24.24
2022-08-19T05:22:38.411Z,24.81
2022-08-19T05:27:42.713Z,25.53
2022-08-19T05:32:45.840Z,26.05
2022-08-19T05:37:48.553Z,26.46
2022-08-19T05:42:57.700Z,26.73
2022-08-19T05:48:00.573Z,27.00
2022-08-19T05:53:03.781Z,27.33
2022-08-19T05:58:08.732Z,27.71
2022-08-19T06:03:13.439Z,27.92
2022-08-19T06:08:19.492Z,28.02
2022-08-19T06:13:24.331Z,28.20
2022-08-19T06:18:27.420Z,28.58
2022-08-19T06:23:30.527Z,29.37
2022-08-19T06:28:34.684Z,30.17
2022-08-19T06:33:38.460Z,30.97
2022-08-19T06:38:41.681Z,31.95
2022-08-19T06:43:45.034Z,33.10
2022-08-19T06:48:49.749Z,33.91
2022-08-19T06:53:55.680Z,34.52
2022-08-19T06:58:59.448Z,34.99
2022-08-19T07:04:03.492Z,35.64
2022-08-19T07:09:10.492Z,36.26
2022-08-19T07:14:19.126Z,36.64
2022-08-19T07:19:24.790Z,37.43
2022-08-19T07:24:28.515Z,38.02
2022-08-19T07:29:38.345Z,38.03
2022-08-19T07:34:41.386Z,38.08
2022-08-19T07:39:45.884Z,37.28
2022-08-19T07:44:50.421Z,36.98
2022-08-19T07:49:53.617Z,36.95
2022-08-19T07:54:56.422Z,37.04
2022-08-19T08:00:00.273Z,37.45
2022-08-19T08:05:22.435Z,37.85
2022-08-19T08:10:25.295Z,38.54
2022-08-19T08:15:28.334Z,38.92
2022-08-19T08:20:32.558Z,39.32
2022-08-19T08:25:37.385Z,39.63
2022-08-19T08:30:45.075Z,39.59
2022-08-19T08:35:48.421Z,39.46
2022-08-19T08:41:20.615Z,40.03
2022-08-19T08:46:31.488Z,40.67
2022-08-19T08:56:54.302Z,40.80
2022-08-19T09:01:57.131Z,40.55
2022-08-19T09:07:36.051Z,40.19
2022-08-19T09:12:59.936Z,40.28
2022-08-19T09:18:07.191Z,40.92
2022-08-19T09:23:11.897Z,41.23
2022-08-19T09:28:22.492Z,41.63
2022-08-19T09:33:30.614Z,42.13
2022-08-19T09:38:33.645Z,42.39
2022-08-19T09:43:44.176Z,41.87
2022-08-19T09:48:53.149Z,41.58
2022-08-19T09:54:01.281Z,42.36
2022-08-19T09:59:07.868Z,43.31
2022-08-19T10:04:20.174Z,43.85
2022-08-19T10:09:26.254Z,44.10
2022-08-19T10:14:38.121Z,44.48
2022-08-19T10:19:42.076Z,44.57
2022-08-19T10:24:58.650Z,44.17
2022-08-19T10:30:02.697Z,44.36
2022-08-19T10:35:09.492Z,44.66
2022-08-19T10:40:12.956Z,44.49
2022-08-19T10:45:15.645Z,44.44
2022-08-19T10:50:37.431Z,44.38
2022-08-19T10:55:59.274Z,44.12
2022-08-19T11:01:02.340Z,43.59
2022-08-19T11:06:08.653Z,43.84
2022-08-19T11:11:11.769Z,42.91
2022-08-19T11:16:23.996Z,42.58
2022-08-19T11:21:33.340Z,42.05
2022-08-19T11:26:37.094Z,42.20
2022-08-19T11:31:42.861Z,42.66
2022-08-19T11:36:49.182Z,43.06
2022-08-19T11:41:52.483Z,42.58
2022-08-19T11:46:55.823Z,42.18
2022-08-19T11:51:59.494Z,41.83
2022-08-19T11:57:04.761Z,41.21
2022-08-19T12:02:07.487Z,40.64
2022-08-19T12:07:10.258Z,40.20
2022-08-19T12:12:13.210Z,39.62
2022-08-19T12:17:16.362Z,39.17
2022-08-19T12:22:19.588Z,38.87
2022-08-19T12:27:39.933Z,38.42
2022-08-19T12:32:44.245Z,38.23
2022-08-19T12:37:56.917Z,38.18
2022-08-19T12:43:00.508Z,37.47
2022-08-19T12:48:33.584Z,37.76
2022-08-19T12:53:27.087Z,37.85
2022-08-19T12:58:30.834Z,38.91
2022-08-19T13:03:36.432Z,39.70
2022-08-19T13:08:42.907Z,40.10
2022-08-19T13:13:51.507Z,39.71
2022-08-19T13:18:56.939Z,39.74
2022-08-19T13:23:59.980Z,39.61
2022-08-19T13:29:38.062Z,38.86
2022-08-19T13:34:47.749Z,37.71
2022-08-19T13:39:50.615Z,37.39
2022-08-19T13:44:55.765Z,37.29
2022-08-19T13:49:58.468Z,37.59
2022-08-19T13:55:01.222Z,37.54
2022-08-19T14:00:05.496Z,36.69
2022-08-19T14:05:12.601Z,35.81
2022-08-19T14:10:16.127Z,35.27
2022-08-19T14:15:18.895Z,35.26
2022-08-19T14:20:22.470Z,35.60
2022-08-19T14:25:31.046Z,35.36
2022-08-19T14:30:35.906Z,34.99
2022-08-19T14:35:39.096Z,34.70
2022-08-19T14:40:43.146Z,34.56
2022-08-19T14:45:46.305Z,34.57
2022-08-19T14:50:49.623Z,34.52
2022-08-19T14:55:53.108Z,34.65
2022-08-19T15:00:55.994Z,34.79
2022-08-19T15:06:00.180Z,35.06
2022-08-19T15:11:03.875Z,35.15
2022-08-19T15:16:06.934Z,35.28
2022-08-19T15:21:27.151Z,35.28
2022-08-19T15:26:33.479Z,35.32
2022-08-19T15:31:38.264Z,35.12
2022-08-19T15:36:41.789Z,34.98
2022-08-19T15:41:45.286Z,34.72
2022-08-19T15:46:49.450Z,34.15
2022-08-19T15:51:54.382Z,33.64
2022-08-19T15:57:15.720Z,33.36
2022-08-19T16:02:40.386Z,33.16
2022-08-19T16:07:43.260Z,33.17
2022-08-19T16:12:46.105Z,33.10
2022-08-19T16:17:55.493Z,32.99
2022-08-19T16:23:00.546Z,32.81
2022-08-19T16:28:06.630Z,32.63
2022-08-19T16:33:11.082Z,32.41
2022-08-19T16:38:13.783Z,32.25
2022-08-19T16:43:16.473Z,32.09
2022-08-19T16:48:20.594Z,31.92
2022-08-19T16:53:29.166Z,31.75
2022-08-19T16:58:34.449Z,31.58
2022-08-19T17:03:39.993Z,31.41
2022-08-19T17:08:48.504Z,31.27
2022-08-19T17:13:52.276Z,31.11
2022-08-19T17:18:57.541Z,30.91
2022-08-19T17:24:02.284Z,30.72
2022-08-19T17:29:06.054Z,30.54
2022-08-19T17:34:09.379Z,30.37
2022-08-19T17:39:12.173Z,30.21
2022-08-19T17:44:14.914Z,30.04
2022-08-19T17:49:17.991Z,29.87
2022-08-19T17:54:20.800Z,29.71
2022-08-19T17:59:23.610Z,29.57
2022-08-19T18:04:31.357Z,29.43
2022-08-19T18:09:42.283Z,29.29
2022-08-19T18:14:46.565Z,29.15
2022-08-19T18:19:49.492Z,29.04
2022-08-19T18:24:52.448Z,28.95
2022-08-19T18:29:59.860Z,28.85
2022-08-19T18:35:06.596Z,28.73
2022-08-19T18:40:31.698Z,28.62
2022-08-19T18:46:07.223Z,28.52
2022-08-19T18:51:11.383Z,28.42
2022-08-19T18:56:18.104Z,28.37
2022-08-19T19:01:50.693Z,28.31
2022-08-19T19:06:53.889Z,28.21
2022-08-19T19:12:00.530Z,28.11
2022-08-19T19:17:06.973Z,28.00
2022-08-19T19:22:13.233Z,27.89
2022-08-19T19:27:20.457Z,27.81
2022-08-19T19:32:28.529Z,27.75
2022-08-19T19:37:31.683Z,27.70
2022-08-19T19:42:35.201Z,27.65
2022-08-19T19:47:38.120Z,27.60
2022-08-19T19:52:41.190Z,27.56
2022-08-19T19:57:46.585Z,27.52
2022-08-19T20:02:50.917Z,27.48
2022-08-19T20:08:14.263Z,27.44
2022-08-19T20:13:17.165Z,27.41
2022-08-19T20:18:19.925Z,27.39
2022-08-19T20:23:23.637Z,27.37
2022-08-19T20:28:28.458Z,27.35
2022-08-19T20:33:31.500Z,27.33
2022-08-19T20:38:35.171Z,27.29
2022-08-19T20:43:38.890Z,27.27
2022-08-19T20:48:42.971Z,27.24
2022-08-19T20:53:45.793Z,27.22
2022-08-19T20:58:53.518Z,27.18
2022-08-19T21:03:58.336Z,27.14
2022-08-19T21:09:01.318Z,27.11
2022-08-19T21:14:04.096Z,27.08
2022-08-19T21:19:06.995Z,27.04
2022-08-19T21:24:09.935Z,26.99
2022-08-19T21:29:12.664Z,26.95
2022-08-19T21:34:15.621Z,26.92
2022-08-19T21:39:18.460Z,26.90
2022-08-19T21:44:21.298Z,26.88
2022-08-19T21:49:24.101Z,26.85
2022-08-19T21:54:26.822Z,26.81
2022-08-19T21:59:43.537Z,26.77
2022-08-19T22:04:47.167Z,26.73
2022-08-19T22:09:51.726Z,26.70
2022-08-19T22:14:55.692Z,26.67
2022-08-19T22:19:58.634Z,26.63
2022-08-19T22:25:31.611Z,26.59
2022-08-19T22:30:38.235Z,26.56
2022-08-19T22:35:42.527Z,26.52
2022-08-19T22:40:48.538Z,26.46
2022-08-19T22:45:53.716Z,26.38
2022-08-19T22:51:15.882Z,26.29
2022-08-19T22:56:20.250Z,26.21
2022-08-19T23:01:29.661Z,26.16
2022-08-19T23:06:36.374Z,26.12
2022-08-19T23:11:42.018Z,26.02
2022-08-19T23:16:50.761Z,25.18
2022-08-19T23:21:54.144Z,24.20
2022-08-19T23:27:15.205Z,23.71
2022-08-19T23:32:19.559Z,23.52
2022-08-19T23:37:22.274Z,23.50
2022-08-19T23:42:27.452Z,23.46
2022-08-19T23:47:30.205Z,23.35
2022-08-19T23:52:35.594Z,23.17
2022-08-19T23:57:38.485Z,23.00
